sensor_id;sensor_type;location;lat;lon;timestamp;pressure;altitude;pressure_sealevel;temperature;humidity
85197;BME280;75566;42.698;23.346;2024-02-26T00:01:25;95082.97;;;8.76;73.87
85197;BME280;75566;42.698;23.346;2024-02-26T00:03:51;95082.06;;;8.73;73.51
85197;BME280;75566;42.698;23.346;2024-02-26T00:06:17;95074.28;;;8.77;72.72
85197;BME280;75566;42.698;23.346;2024-02-26T00:08:43;95076.28;;;8.77;72.92
85197;BME280;75566;42.698;23.346;2024-02-26T00:11:09;95070.94;;;8.71;71.97
85197;BME280;75566;42.698;23.346;2024-02-26T00:13:35;95079.19;;;8.79;71.79
85197;BME280;75566;42.698;23.346;2024-02-26T00:16:02;95067.91;;;8.74;72.73
85197;BME280;75566;42.698;23.346;2024-02-26T00:18:27;95086.88;;;8.46;72.56
85197;BME280;75566;42.698;23.346;2024-02-26T00:20:53;95074.44;;;8.37;74.51
85197;BME280;75566;42.698;23.346;2024-02-26T00:23:18;95077.25;;;8.45;73.08
85197;BME280;75566;42.698;23.346;2024-02-26T00:25:44;95074.78;;;8.54;73.03
85197;BME280;75566;42.698;23.346;2024-02-26T00:28:10;95067.50;;;8.49;73.91
85197;BME280;75566;42.698;23.346;2024-02-26T00:30:35;95063.56;;;8.58;74.19
85197;BME280;75566;42.698;23.346;2024-02-26T00:33:01;95052.47;;;8.56;74.17
85197;BME280;75566;42.698;23.346;2024-02-26T00:35:26;95067.81;;;8.67;73.96
85197;BME280;75566;42.698;23.346;2024-02-26T00:37:52;95064.25;;;8.72;73.26
85197;BME280;75566;42.698;23.346;2024-02-26T00:40:17;95053.19;;;8.78;72.12
85197;BME280;75566;42.698;23.346;2024-02-26T00:42:43;95050.81;;;8.74;73.86
85197;BME280;75566;42.698;23.346;2024-02-26T00:45:11;95047.94;;;8.59;73.29
85197;BME280;75566;42.698;23.346;2024-02-26T00:47:37;95047.88;;;8.51;74.38
85197;BME280;75566;42.698;23.346;2024-02-26T00:50:03;95047.88;;;8.51;72.69
85197;BME280;75566;42.698;23.346;2024-02-26T00:52:28;95039.66;;;8.30;74.89
85197;BME280;75566;42.698;23.346;2024-02-26T00:54:54;95040.25;;;8.15;74.21
85197;BME280;75566;42.698;23.346;2024-02-26T00:57:19;95041.44;;;8.06;74.38
85197;BME280;75566;42.698;23.346;2024-02-26T00:59:45;95031.66;;;8.11;75.99
85197;BME280;75566;42.698;23.346;2024-02-26T01:02:10;95039.59;;;8.22;74.88
85197;BME280;75566;42.698;23.346;2024-02-26T01:04:36;95035.81;;;8.25;75.20
85197;BME280;75566;42.698;23.346;2024-02-26T01:07:02;95031.94;;;8.21;74.71
85197;BME280;75566;42.698;23.346;2024-02-26T01:09:28;95028.97;;;8.32;75.00
85197;BME280;75566;42.698;23.346;2024-02-26T01:11:53;95033.47;;;8.43;74.74
85197;BME280;75566;42.698;23.346;2024-02-26T01:14:19;95037.72;;;8.51;74.18
85197;BME280;75566;42.698;23.346;2024-02-26T01:16:44;95025.19;;;8.56;73.88
85197;BME280;75566;42.698;23.346;2024-02-26T01:19:10;95026.19;;;8.66;73.12
85197;BME280;75566;42.698;23.346;2024-02-26T01:21:35;95029.53;;;8.72;73.45
85197;BME280;75566;42.698;23.346;2024-02-26T01:24:01;95028.13;;;8.79;72.25
85197;BME280;75566;42.698;23.346;2024-02-26T01:26:26;95034.16;;;8.85;72.01
85197;BME280;75566;42.698;23.346;2024-02-26T01:28:52;95031.09;;;8.89;71.88
85197;BME280;75566;42.698;23.346;2024-02-26T01:31:17;95020.91;;;8.89;73.34
85197;BME280;75566;42.698;23.346;2024-02-26T01:33:43;95017.88;;;8.72;72.22
85197;BME280;75566;42.698;23.346;2024-02-26T01:36:08;95023.56;;;8.53;73.68
85197;BME280;75566;42.698;23.346;2024-02-26T01:38:34;95020.81;;;8.53;73.01
85197;BME280;75566;42.698;23.346;2024-02-26T01:40:59;95025.16;;;8.48;73.07
85197;BME280;75566;42.698;23.346;2024-02-26T01:43:25;95016.75;;;8.25;74.56
85197;BME280;75566;42.698;23.346;2024-02-26T01:45:50;95002.94;;;8.10;74.08
85197;BME280;75566;42.698;23.346;2024-02-26T01:48:16;95014.06;;;8.12;73.92
85197;BME280;75566;42.698;23.346;2024-02-26T01:50:41;95014.13;;;8.20;74.24
85197;BME280;75566;42.698;23.346;2024-02-26T01:53:07;95004.56;;;8.26;74.17
85197;BME280;75566;42.698;23.346;2024-02-26T01:55:34;95001.91;;;8.34;74.96
85197;BME280;75566;42.698;23.346;2024-02-26T01:58:00;95002.94;;;8.44;73.41
85197;BME280;75566;42.698;23.346;2024-02-26T02:00:26;95008.44;;;8.52;74.34
85197;BME280;75566;42.698;23.346;2024-02-26T02:02:52;95009.25;;;8.60;73.84
85197;BME280;75566;42.698;23.346;2024-02-26T02:05:20;94995.75;;;8.54;73.60
85197;BME280;75566;42.698;23.346;2024-02-26T02:07:46;95008.19;;;8.63;72.35
85197;BME280;75566;42.698;23.346;2024-02-26T02:10:15;95007.72;;;8.72;73.70
85197;BME280;75566;42.698;23.346;2024-02-26T02:12:40;95008.09;;;8.77;71.78
85197;BME280;75566;42.698;23.346;2024-02-26T02:15:06;95008.81;;;8.77;71.99
85197;BME280;75566;42.698;23.346;2024-02-26T02:17:32;94998.31;;;8.81;73.41
85197;BME280;75566;42.698;23.346;2024-02-26T02:19:58;94997.78;;;8.83;71.66
85197;BME280;75566;42.698;23.346;2024-02-26T02:22:23;94997.97;;;8.85;72.17
85197;BME280;75566;42.698;23.346;2024-02-26T02:24:51;95003.78;;;8.81;72.00
85197;BME280;75566;42.698;23.346;2024-02-26T02:27:17;95001.03;;;8.81;72.00
85197;BME280;75566;42.698;23.346;2024-02-26T02:29:42;95004.69;;;8.84;73.31
85197;BME280;75566;42.698;23.346;2024-02-26T02:32:08;95007.09;;;8.87;73.35
85197;BME280;75566;42.698;23.346;2024-02-26T02:34:34;95003.44;;;8.85;72.10
85197;BME280;75566;42.698;23.346;2024-02-26T02:37:00;94992.00;;;8.86;72.53
85197;BME280;75566;42.698;23.346;2024-02-26T02:39:26;95004.94;;;8.93;72.09
85197;BME280;75566;42.698;23.346;2024-02-26T02:41:51;95002.03;;;8.91;71.84
85197;BME280;75566;42.698;23.346;2024-02-26T02:44:17;95009.16;;;8.94;73.11
85197;BME280;75566;42.698;23.346;2024-02-26T02:46:42;95003.34;;;8.98;71.54
85197;BME280;75566;42.698;23.346;2024-02-26T02:49:11;95005.34;;;8.98;71.35
85197;BME280;75566;42.698;23.346;2024-02-26T02:51:37;95005.41;;;9.05;71.89
85197;BME280;75566;42.698;23.346;2024-02-26T02:54:03;95018.16;;;9.10;72.29
85197;BME280;75566;42.698;23.346;2024-02-26T02:56:29;95011.91;;;9.02;71.06
85197;BME280;75566;42.698;23.346;2024-02-26T02:58:54;95020.28;;;9.04;70.59
85197;BME280;75566;42.698;23.346;2024-02-26T03:01:20;95020.59;;;8.93;72.95
85197;BME280;75566;42.698;23.346;2024-02-26T03:03:45;95015.56;;;8.76;73.38
85197;BME280;75566;42.698;23.346;2024-02-26T03:06:11;95027.91;;;8.77;73.69
85197;BME280;75566;42.698;23.346;2024-02-26T03:08:36;95022.84;;;8.81;72.82
85197;BME280;75566;42.698;23.346;2024-02-26T03:11:04;95016.88;;;8.83;71.80
85197;BME280;75566;42.698;23.346;2024-02-26T03:13:29;95026.50;;;8.84;71.64
85197;BME280;75566;42.698;23.346;2024-02-26T03:15:55;95010.31;;;8.78;73.02
85197;BME280;75566;42.698;23.346;2024-02-26T03:18:20;95017.47;;;8.89;72.72
85197;BME280;75566;42.698;23.346;2024-02-26T03:20:46;95018.38;;;8.91;72.19
85197;BME280;75566;42.698;23.346;2024-02-26T03:23:12;95013.66;;;8.92;71.22
85197;BME280;75566;42.698;23.346;2024-02-26T03:25:42;95013.31;;;8.96;71.54
85197;BME280;75566;42.698;23.346;2024-02-26T03:28:08;95014.44;;;9.00;71.91
85197;BME280;75566;42.698;23.346;2024-02-26T03:30:33;95003.72;;;9.02;71.03
85197;BME280;75566;42.698;23.346;2024-02-26T03:32:59;94993.91;;;8.99;70.63
85197;BME280;75566;42.698;23.346;2024-02-26T03:35:25;94995.00;;;9.04;70.87
85197;BME280;75566;42.698;23.346;2024-02-26T03:37:50;94995.16;;;8.98;70.75
85197;BME280;75566;42.698;23.346;2024-02-26T03:40:17;94996.66;;;9.07;71.00
85197;BME280;75566;42.698;23.346;2024-02-26T03:42:44;94998.84;;;9.08;71.30
85197;BME280;75566;42.698;23.346;2024-02-26T03:45:10;95002.66;;;9.05;72.24
85197;BME280;75566;42.698;23.346;2024-02-26T03:47:37;94997.94;;;9.06;71.69
85197;BME280;75566;42.698;23.346;2024-02-26T03:50:04;94998.66;;;9.06;70.90
85197;BME280;75566;42.698;23.346;2024-02-26T03:52:30;95000.13;;;9.07;71.31
85197;BME280;75566;42.698;23.346;2024-02-26T03:54:55;94994.13;;;9.09;70.56
85197;BME280;75566;42.698;23.346;2024-02-26T03:57:21;94994.50;;;9.13;71.21
85197;BME280;75566;42.698;23.346;2024-02-26T03:59:46;94994.31;;;9.11;71.52
85197;BME280;75566;42.698;23.346;2024-02-26T04:02:12;95000.13;;;9.07;71.77
85197;BME280;75566;42.698;23.346;2024-02-26T04:04:37;94996.66;;;9.07;71.59
85197;BME280;75566;42.698;23.346;2024-02-26T04:07:03;94993.22;;;9.06;71.95
85197;BME280;75566;42.698;23.346;2024-02-26T04:09:31;94990.47;;;9.06;72.40
85197;BME280;75566;42.698;23.346;2024-02-26T04:11:56;94981.75;;;9.08;72.31
85197;BME280;75566;42.698;23.346;2024-02-26T04:14:22;94986.50;;;9.07;71.48
85197;BME280;75566;42.698;23.346;2024-02-26T04:16:47;94987.75;;;9.06;71.32
85197;BME280;75566;42.698;23.346;2024-02-26T04:19:16;94983.78;;;9.07;70.95
85197;BME280;75566;42.698;23.346;2024-02-26T04:21:42;94983.41;;;9.11;70.40
85197;BME280;75566;42.698;23.346;2024-02-26T04:24:07;94974.50;;;9.10;70.96
85197;BME280;75566;42.698;23.346;2024-02-26T04:26:34;94973.78;;;9.10;70.11
85197;BME280;75566;42.698;23.346;2024-02-26T04:29:00;94976.50;;;9.10;71.80
85197;BME280;75566;42.698;23.346;2024-02-26T04:31:25;94971.19;;;9.04;71.09
85197;BME280;75566;42.698;23.346;2024-02-26T04:33:54;94969.69;;;8.96;69.43
85197;BME280;75566;42.698;23.346;2024-02-26T04:36:19;94972.13;;;8.78;70.73
85197;BME280;75566;42.698;23.346;2024-02-26T04:38:45;94976.63;;;8.76;71.51
85197;BME280;75566;42.698;23.346;2024-02-26T04:41:11;94976.81;;;8.78;71.83
85197;BME280;75566;42.698;23.346;2024-02-26T04:43:37;94989.00;;;8.77;70.99
85197;BME280;75566;42.698;23.346;2024-02-26T04:46:07;94982.63;;;8.74;70.29
85197;BME280;75566;42.698;23.346;2024-02-26T04:48:34;94980.94;;;8.63;71.33
85197;BME280;75566;42.698;23.346;2024-02-26T04:51:00;94993.09;;;8.62;72.43
85197;BME280;75566;42.698;23.346;2024-02-26T04:53:25;94985.78;;;8.57;70.80
85197;BME280;75566;42.698;23.346;2024-02-26T04:55:51;94990.50;;;8.57;72.47
85197;BME280;75566;42.698;23.346;2024-02-26T04:58:17;94990.50;;;8.57;72.48
85197;BME280;75566;42.698;23.346;2024-02-26T05:00:42;94990.16;;;8.60;71.93
85197;BME280;75566;42.698;23.346;2024-02-26T05:03:08;94983.66;;;8.63;72.32
85197;BME280;75566;42.698;23.346;2024-02-26T05:05:38;94994.97;;;8.67;72.32
85197;BME280;75566;42.698;23.346;2024-02-26T05:08:04;94999.66;;;8.67;71.66
85197;BME280;75566;42.698;23.346;2024-02-26T05:10:29;95011.50;;;8.69;70.83
85197;BME280;75566;42.698;23.346;2024-02-26T05:12:54;95008.03;;;8.69;71.39
85197;BME280;75566;42.698;23.346;2024-02-26T05:15:20;95013.69;;;8.71;72.17
85197;BME280;75566;42.698;23.346;2024-02-26T05:17:45;95021.28;;;8.44;71.08
85197;BME280;75566;42.698;23.346;2024-02-26T05:20:11;95026.34;;;8.05;71.45
85197;BME280;75566;42.698;23.346;2024-02-26T05:22:37;95033.25;;;8.06;73.68
85197;BME280;75566;42.698;23.346;2024-02-26T05:25:03;95026.53;;;8.07;73.24
85197;BME280;75566;42.698;23.346;2024-02-26T05:27:29;95031.00;;;8.18;72.51
85197;BME280;75566;42.698;23.346;2024-02-26T05:29:54;95031.63;;;8.24;73.58
85197;BME280;75566;42.698;23.346;2024-02-26T05:32:19;95032.75;;;8.29;73.56
85197;BME280;75566;42.698;23.346;2024-02-26T05:34:45;95038.75;;;8.27;72.86
85197;BME280;75566;42.698;23.346;2024-02-26T05:37:10;95034.34;;;8.24;72.44
85197;BME280;75566;42.698;23.346;2024-02-26T05:39:37;95047.91;;;8.38;71.75
85197;BME280;75566;42.698;23.346;2024-02-26T05:42:03;95042.16;;;8.41;71.83
85197;BME280;75566;42.698;23.346;2024-02-26T05:44:28;95037.31;;;8.47;72.25
85197;BME280;75566;42.698;23.346;2024-02-26T05:46:54;95049.34;;;8.52;73.32
85197;BME280;75566;42.698;23.346;2024-02-26T05:49:19;95047.00;;;8.56;72.67
85197;BME280;75566;42.698;23.346;2024-02-26T05:51:45;95050.13;;;8.60;72.48
85197;BME280;75566;42.698;23.346;2024-02-26T05:54:10;95043.63;;;8.63;71.48
85197;BME280;75566;42.698;23.346;2024-02-26T05:56:36;95046.97;;;8.69;72.47
85197;BME280;75566;42.698;23.346;2024-02-26T05:59:02;95039.53;;;8.78;71.51
85197;BME280;75566;42.698;23.346;2024-02-26T06:01:27;95046.16;;;8.82;72.15
85197;BME280;75566;42.698;23.346;2024-02-26T06:03:53;95056.50;;;8.84;72.11
85197;BME280;75566;42.698;23.346;2024-02-26T06:06:19;95049.47;;;8.88;71.66
85197;BME280;75566;42.698;23.346;2024-02-26T06:08:44;95049.47;;;8.88;71.02
85197;BME280;75566;42.698;23.346;2024-02-26T06:11:10;95059.38;;;8.99;72.34
85197;BME280;75566;42.698;23.346;2024-02-26T06:13:54;95058.34;;;9.10;71.22
85197;BME280;75566;42.698;23.346;2024-02-26T06:16:19;95062.41;;;9.17;71.67
85197;BME280;75566;42.698;23.346;2024-02-26T06:18:45;95066.25;;;9.21;71.70
85197;BME280;75566;42.698;23.346;2024-02-26T06:21:10;95058.25;;;9.23;69.98
85197;BME280;75566;42.698;23.346;2024-02-26T06:23:37;95062.69;;;9.34;71.31
85197;BME280;75566;42.698;23.346;2024-02-26T06:26:02;95068.00;;;9.40;69.67
85197;BME280;75566;42.698;23.346;2024-02-26T06:28:28;95068.06;;;9.47;70.90
85197;BME280;75566;42.698;23.346;2024-02-26T06:30:56;95064.25;;;9.50;70.47
85197;BME280;75566;42.698;23.346;2024-02-26T06:33:21;95070.28;;;9.57;69.02
85197;BME280;75566;42.698;23.346;2024-02-26T06:35:47;95074.31;;;9.63;68.38
85197;BME280;75566;42.698;23.346;2024-02-26T06:38:12;95068.72;;;9.69;68.64
85197;BME280;75566;42.698;23.346;2024-02-26T06:40:39;95065.28;;;9.76;69.04
85197;BME280;75566;42.698;23.346;2024-02-26T06:43:04;95069.84;;;9.81;68.55
85197;BME280;75566;42.698;23.346;2024-02-26T06:45:30;95071.16;;;9.88;68.37
85197;BME280;75566;42.698;23.346;2024-02-26T06:47:55;95064.78;;;9.93;68.75
85197;BME280;75566;42.698;23.346;2024-02-26T06:50:21;95060.66;;;10.00;68.85
85197;BME280;75566;42.698;23.346;2024-02-26T06:52:47;95062.28;;;10.03;69.38
85197;BME280;75566;42.698;23.346;2024-02-26T06:55:13;95060.28;;;10.03;69.04
85197;BME280;75566;42.698;23.346;2024-02-26T06:57:38;95055.38;;;10.09;70.03
85197;BME280;75566;42.698;23.346;2024-02-26T07:00:04;95059.41;;;10.16;68.60
85197;BME280;75566;42.698;23.346;2024-02-26T07:02:30;95066.00;;;10.21;67.86
85197;BME280;75566;42.698;23.346;2024-02-26T07:04:56;95049.94;;;10.17;67.92
85197;BME280;75566;42.698;23.346;2024-02-26T07:07:23;95066.19;;;10.23;67.55
85197;BME280;75566;42.698;23.346;2024-02-26T07:09:49;95054.50;;;10.14;68.01
85197;BME280;75566;42.698;23.346;2024-02-26T07:12:15;95058.91;;;10.25;67.96
85197;BME280;75566;42.698;23.346;2024-02-26T07:14:41;95068.75;;;10.28;67.67
85197;BME280;75566;42.698;23.346;2024-02-26T07:17:07;95067.50;;;10.29;66.96
85197;BME280;75566;42.698;23.346;2024-02-26T07:19:33;95076.28;;;10.35;67.59
85197;BME280;75566;42.698;23.346;2024-02-26T07:21:59;95078.63;;;10.39;66.54
85197;BME280;75566;42.698;23.346;2024-02-26T07:24:27;95077.22;;;10.46;67.07
85197;BME280;75566;42.698;23.346;2024-02-26T07:26:52;95071.00;;;10.45;67.33
85197;BME280;75566;42.698;23.346;2024-02-26T07:29:20;95071.56;;;10.44;66.40
85197;BME280;75566;42.698;23.346;2024-02-26T07:31:45;95071.56;;;10.44;66.64
85197;BME280;75566;42.698;23.346;2024-02-26T07:34:11;95071.94;;;10.48;66.90
85197;BME280;75566;42.698;23.346;2024-02-26T07:36:36;95076.09;;;10.49;67.02
85197;BME280;75566;42.698;23.346;2024-02-26T07:39:02;95079.75;;;10.51;66.51
85197;BME280;75566;42.698;23.346;2024-02-26T07:41:28;95071.00;;;10.45;66.26
85197;BME280;75566;42.698;23.346;2024-02-26T07:43:53;95089.06;;;10.56;65.45
85197;BME280;75566;42.698;23.346;2024-02-26T07:46:19;95086.31;;;10.56;66.38
85197;BME280;75566;42.698;23.346;2024-02-26T07:48:44;95087.44;;;10.61;66.44
85197;BME280;75566;42.698;23.346;2024-02-26T07:51:13;95087.44;;;10.61;65.79
85197;BME280;75566;42.698;23.346;2024-02-26T07:53:39;95078.47;;;10.60;66.37
85197;BME280;75566;42.698;23.346;2024-02-26T07:56:05;95088.53;;;10.65;66.75
85197;BME280;75566;42.698;23.346;2024-02-26T07:58:32;95081.97;;;10.68;66.48
85197;BME280;75566;42.698;23.346;2024-02-26T08:00:58;95078.88;;;10.72;66.77
85197;BME280;75566;42.698;23.346;2024-02-26T08:03:23;95068.13;;;10.82;65.80
85197;BME280;75566;42.698;23.346;2024-02-26T08:05:49;95072.31;;;10.90;66.20
85197;BME280;75566;42.698;23.346;2024-02-26T08:08:14;95065.56;;;10.99;66.47
85197;BME280;75566;42.698;23.346;2024-02-26T08:10:40;95065.22;;;11.03;65.23
85197;BME280;75566;42.698;23.346;2024-02-26T08:13:05;95069.41;;;11.11;65.38
85197;BME280;75566;42.698;23.346;2024-02-26T08:15:32;95061.34;;;11.21;64.58
85197;BME280;75566;42.698;23.346;2024-02-26T08:17:59;95064.28;;;11.31;64.65
85197;BME280;75566;42.698;23.346;2024-02-26T08:20:28;95064.44;;;11.41;65.51
85197;BME280;75566;42.698;23.346;2024-02-26T08:22:53;95063.31;;;11.51;64.23
85197;BME280;75566;42.698;23.346;2024-02-26T08:25:18;95064.94;;;11.62;64.11
85197;BME280;75566;42.698;23.346;2024-02-26T08:27:44;95070.22;;;11.68;63.69
85197;BME280;75566;42.698;23.346;2024-02-26T08:30:10;95069.53;;;11.60;64.72
85197;BME280;75566;42.698;23.346;2024-02-26T08:32:38;95068.94;;;11.61;63.86
85197;BME280;75566;42.698;23.346;2024-02-26T08:35:04;95056.38;;;11.50;64.44
85197;BME280;75566;42.698;23.346;2024-02-26T08:37:30;95061.50;;;11.54;64.07
85197;BME280;75566;42.698;23.346;2024-02-26T08:39:55;95057.84;;;11.59;64.29
85197;BME280;75566;42.698;23.346;2024-02-26T08:42:21;95067.84;;;11.72;64.71
85197;BME280;75566;42.698;23.346;2024-02-26T08:44:49;95063.41;;;11.84;65.06
85197;BME280;75566;42.698;23.346;2024-02-26T08:47:14;95060.84;;;11.94;63.50
85197;BME280;75566;42.698;23.346;2024-02-26T08:49:44;95061.53;;;12.02;62.39
85197;BME280;75566;42.698;23.346;2024-02-26T08:52:10;95065.31;;;12.22;64.11
85197;BME280;75566;42.698;23.346;2024-02-26T08:54:35;95064.16;;;12.33;63.42
85197;BME280;75566;42.698;23.346;2024-02-26T08:57:01;95064.44;;;12.45;61.81
85197;BME280;75566;42.698;23.346;2024-02-26T08:59:28;95057.22;;;12.57;62.40
85197;BME280;75566;42.698;23.346;2024-02-26T09:01:53;95058.59;;;12.73;60.42
85197;BME280;75566;42.698;23.346;2024-02-26T09:04:19;95051.19;;;12.84;61.21
85197;BME280;75566;42.698;23.346;2024-02-26T09:06:44;95052.59;;;12.92;61.39
85197;BME280;75566;42.698;23.346;2024-02-26T09:09:10;95052.81;;;12.87;61.12
85197;BME280;75566;42.698;23.346;2024-02-26T09:11:36;95051.03;;;12.82;60.36
85197;BME280;75566;42.698;23.346;2024-02-26T09:14:01;95056.31;;;12.87;62.00
85197;BME280;75566;42.698;23.346;2024-02-26T09:16:29;95057.75;;;12.88;62.25
85197;BME280;75566;42.698;23.346;2024-02-26T09:18:55;95052.59;;;12.92;61.29
85197;BME280;75566;42.698;23.346;2024-02-26T09:21:20;95057.13;;;12.97;60.64
85197;BME280;75566;42.698;23.346;2024-02-26T09:23:49;95041.44;;;12.90;60.24
85197;BME280;75566;42.698;23.346;2024-02-26T09:26:15;95048.31;;;12.99;60.11
85197;BME280;75566;42.698;23.346;2024-02-26T09:28:40;95031.47;;;13.03;60.79
85197;BME280;75566;42.698;23.346;2024-02-26T09:31:06;95044.09;;;13.23;59.41
85197;BME280;75566;42.698;23.346;2024-02-26T09:33:32;95032.88;;;13.29;59.17
85197;BME280;75566;42.698;23.346;2024-02-26T09:35:58;95036.13;;;13.35;58.17
85197;BME280;75566;42.698;23.346;2024-02-26T09:38:24;95032.16;;;13.46;58.35
85197;BME280;75566;42.698;23.346;2024-02-26T09:40:50;95037.75;;;13.55;57.83
85197;BME280;75566;42.698;23.346;2024-02-26T09:43:17;95035.44;;;13.69;57.76
85197;BME280;75566;42.698;23.346;2024-02-26T09:45:45;95033.16;;;13.75;56.26
85197;BME280;75566;42.698;23.346;2024-02-26T09:48:12;95035.41;;;13.87;56.79
85197;BME280;75566;42.698;23.346;2024-02-26T09:50:40;95032.88;;;13.98;55.80
85197;BME280;75566;42.698;23.346;2024-02-26T09:53:08;95026.00;;;14.07;55.96
85197;BME280;75566;42.698;23.346;2024-02-26T09:55:35;95023.88;;;14.15;54.02
85197;BME280;75566;42.698;23.346;2024-02-26T09:58:01;95026.63;;;13.98;53.71
85197;BME280;75566;42.698;23.346;2024-02-26T10:00:30;95026.75;;;13.90;54.50
85197;BME280;75566;42.698;23.346;2024-02-26T10:03:02;95022.94;;;13.86;55.51
85197;BME280;75566;42.698;23.346;2024-02-26T10:05:29;95025.84;;;13.88;54.33
85197;BME280;75566;42.698;23.346;2024-02-26T10:07:56;95020.81;;;13.94;55.07
85197;BME280;75566;42.698;23.346;2024-02-26T10:10:23;95021.88;;;13.98;53.93
85197;BME280;75566;42.698;23.346;2024-02-26T10:12:49;95024.78;;;14.00;54.33
85197;BME280;75566;42.698;23.346;2024-02-26T10:15:14;95012.66;;;14.04;53.98
85197;BME280;75566;42.698;23.346;2024-02-26T10:17:40;95011.81;;;14.11;53.79
85197;BME280;75566;42.698;23.346;2024-02-26T10:20:13;95018.00;;;14.29;53.04
85197;BME280;75566;42.698;23.346;2024-02-26T10:22:43;95008.28;;;14.28;52.16
85197;BME280;75566;42.698;23.346;2024-02-26T10:25:09;95005.69;;;14.30;52.48
85197;BME280;75566;42.698;23.346;2024-02-26T10:27:35;95001.34;;;14.27;52.20
85197;BME280;75566;42.698;23.346;2024-02-26T10:30:04;95002.69;;;14.35;51.87
85197;BME280;75566;42.698;23.346;2024-02-26T10:32:40;95007.31;;;14.33;51.97
85197;BME280;75566;42.698;23.346;2024-02-26T10:35:08;94991.06;;;14.27;51.72
85197;BME280;75566;42.698;23.346;2024-02-26T10:37:35;94994.91;;;14.14;51.84
85197;BME280;75566;42.698;23.346;2024-02-26T10:40:01;94995.63;;;14.15;51.86
85197;BME280;75566;42.698;23.346;2024-02-26T10:42:27;94983.97;;;14.24;52.00
85197;BME280;75566;42.698;23.346;2024-02-26T10:44:52;94974.88;;;14.31;51.83
85197;BME280;75566;42.698;23.346;2024-02-26T10:47:18;94977.38;;;14.47;51.30
85197;BME280;75566;42.698;23.346;2024-02-26T10:49:46;94978.31;;;14.59;50.56
85197;BME280;75566;42.698;23.346;2024-02-26T10:52:15;94974.44;;;14.62;51.37
85197;BME280;75566;42.698;23.346;2024-02-26T10:54:47;94979.81;;;14.70;50.81
85197;BME280;75566;42.698;23.346;2024-02-26T10:57:15;94978.97;;;14.77;50.11
85197;BME280;75566;42.698;23.346;2024-02-26T10:59:44;94980.84;;;14.74;50.07
85197;BME280;75566;42.698;23.346;2024-02-26T11:02:10;94972.75;;;14.76;50.51
85197;BME280;75566;42.698;23.346;2024-02-26T11:04:37;94974.91;;;14.78;51.00
85197;BME280;75566;42.698;23.346;2024-02-26T11:07:04;94952.72;;;14.76;48.83
85197;BME280;75566;42.698;23.346;2024-02-26T11:09:30;94970.75;;;14.87;49.94
85197;BME280;75566;42.698;23.346;2024-02-26T11:11:57;94962.75;;;14.91;49.89
85197;BME280;75566;42.698;23.346;2024-02-26T11:14:24;94960.44;;;14.87;48.88
85197;BME280;75566;42.698;23.346;2024-02-26T11:16:51;94957.09;;;14.79;49.50
85197;BME280;75566;42.698;23.346;2024-02-26T11:19:17;94956.53;;;14.80;48.32
85197;BME280;75566;42.698;23.346;2024-02-26T11:21:43;94959.66;;;14.67;48.19
85197;BME280;75566;42.698;23.346;2024-02-26T11:24:14;94959.28;;;14.80;48.81
85197;BME280;75566;42.698;23.346;2024-02-26T11:26:44;94963.91;;;14.78;49.88
85197;BME280;75566;42.698;23.346;2024-02-26T11:29:14;94960.59;;;14.89;48.88
85197;BME280;75566;42.698;23.346;2024-02-26T11:31:41;94959.13;;;14.78;49.00
85197;BME280;75566;42.698;23.346;2024-02-26T11:34:08;94961.84;;;14.69;48.98
85197;BME280;75566;42.698;23.346;2024-02-26T11:36:34;94943.44;;;14.71;48.23
85197;BME280;75566;42.698;23.346;2024-02-26T11:39:01;94955.50;;;14.86;48.82
85197;BME280;75566;42.698;23.346;2024-02-26T11:41:27;94950.03;;;14.95;47.77
85197;BME280;75566;42.698;23.346;2024-02-26T11:44:03;94959.03;;;15.06;48.17
85197;BME280;75566;42.698;23.346;2024-02-26T11:46:42;94956.56;;;15.00;48.05
85197;BME280;75566;42.698;23.346;2024-02-26T11:51:53;94945.81;;;14.94;47.57
85197;BME280;75566;42.698;23.346;2024-02-26T11:54:50;94946.25;;;15.00;47.40
85197;BME280;75566;42.698;23.346;2024-02-26T11:57:46;94946.00;;;15.06;48.47
85197;BME280;75566;42.698;23.346;2024-02-26T12:00:13;94942.66;;;15.08;48.96
85197;BME280;75566;42.698;23.346;2024-02-26T12:02:55;94935.84;;;15.18;48.32
85197;BME280;75566;42.698;23.346;2024-02-26T12:05:25;94937.44;;;15.21;48.48
85197;BME280;75566;42.698;23.346;2024-02-26T12:07:55;94938.03;;;15.30;46.61
85197;BME280;75566;42.698;23.346;2024-02-26T12:10:24;94930.19;;;15.07;47.48
85197;BME280;75566;42.698;23.346;2024-02-26T12:15:23;94934.66;;;15.12;49.11
85197;BME280;75566;42.698;23.346;2024-02-26T12:17:49;94941.19;;;15.26;47.73
85197;BME280;75566;42.698;23.346;2024-02-26T12:20:19;94938.16;;;15.32;46.72
85197;BME280;75566;42.698;23.346;2024-02-26T12:22:45;94941.78;;;15.34;47.21
85197;BME280;75566;42.698;23.346;2024-02-26T12:25:16;94943.09;;;15.43;46.63
85197;BME280;75566;42.698;23.346;2024-02-26T12:27:41;94944.53;;;15.63;45.65
85197;BME280;75566;42.698;23.346;2024-02-26T12:30:08;94943.66;;;15.71;46.51
85197;BME280;75566;42.698;23.346;2024-02-26T12:32:35;94943.50;;;15.78;44.14
85197;BME280;75566;42.698;23.346;2024-02-26T12:35:00;94950.19;;;15.85;44.17
85197;BME280;75566;42.698;23.346;2024-02-26T12:37:27;94938.72;;;15.79;44.02
85197;BME280;75566;42.698;23.346;2024-02-26T12:39:53;94945.69;;;15.80;43.61
85197;BME280;75566;42.698;23.346;2024-02-26T12:42:19;94947.72;;;15.70;43.06
85197;BME280;75566;42.698;23.346;2024-02-26T12:44:49;94936.28;;;15.73;44.19
85197;BME280;75566;42.698;23.346;2024-02-26T12:47:15;94942.09;;;15.77;43.67
85197;BME280;75566;42.698;23.346;2024-02-26T12:49:47;94947.88;;;15.81;43.26
85197;BME280;75566;42.698;23.346;2024-02-26T12:52:13;94939.72;;;15.93;43.10
85197;BME280;75566;42.698;23.346;2024-02-26T12:54:39;94940.13;;;16.09;42.44
85197;BME280;75566;42.698;23.346;2024-02-26T12:57:07;94942.28;;;16.11;41.26